Terminal Aerodrome Forecast
Issued by NWS

Current Version | Previous Version | Text Only | Print | Product List | Glossary On
Versions: 1 2 3 4 5 6 7 8 9 10 11 12 13 14
519
FTUS41 KLWX 211720
TAFMTN
TAF
KMTN 211720Z 2118/2218 14008KT P6SM SCT050 BKN200
     FM212300 VRB04KT P6SM BKN090 OVC200
     FM221600 14008KT P6SM SCT050 BKN130=

USA.gov is the U.S. government's official web portal to all federal, state and local government web resources and services.